No particular awareness of the weather is required.    There are no Weather-warnings


Meteo18 Weather Cam more information Meteo18 Weather Cam


Thunder radar more information blitzortung!


Rain radar more information rain snow radar


Visit our other weather sites:

Template documentation
and downloads

And another site



Weather Underground History page Text

Daily Summary for December 7, 2017 Units:  Both    English   Metric
« Previous Day
Next Day »
Daily Weekly Monthly Yearly Custom
  High: Low: Average:
Temperature: TemperatureC °F /  -17.8 °C -2.2 °F /  -19 °C 2 °F /  -16.7 °C
Dew Point: DewpointC °F /  -17.8 °C -2.6 °F /  -19.2 °C 1.2 °F /  -17.1 °C
Humidity: Humidity % 86 % 94 %
Wind Speed: WindSpeedKMH mph /  0 km/h - 9.4 mph /  15.1 km/h
Wind Gust: WindSpeedGustKMH mph /  0 km/h - -
Wind:- - SSW
Pressure: PressurehPa in /  0 hPa 1016.1 in /  34405.1 hPa -
Precipitation: 7.9 in /  200.66 mm    
Historical Graphs
 
 
Tabular Data for December 7, 2017
Time Temperature Dew Point Pressure Wind Wind Speed Wind Gust Humidity Rainfall Rate (Hourly)
TemperatureC °F /  -17.8 °C DewpointC °F /  -17.8 °C PressurehPa in /  0 hPa Calm     Humidity % HourlyPrecipMM in /  0 mm
00:02 0.9 °F /  -17.3 °C 0.3 °F /  -17.6 °C 1029.7 in /  34865.6 hPa SSE 1.6 mph /  2.6 km/h 8.0 mph /  12.9 km/h 96 % 0.0 in /  0 mm
00:07 0.9 °F /  -17.3 °C 0.2 °F /  -17.7 °C 1029.7 in /  34865.6 hPa SSE 1.6 mph /  2.6 km/h 8.0 mph /  12.9 km/h 95 % 0.0 in /  0 mm
00:12 0.9 °F /  -17.3 °C 0.2 °F /  -17.7 °C 1029.7 in /  34865.6 hPa SSE 1.6 mph /  2.6 km/h 9.7 mph /  15.6 km/h 95 % 0.0 in /  0 mm
00:17 0.9 °F /  -17.3 °C 0.3 °F /  -17.6 °C 1029.7 in /  34865.6 hPa Calm   9.7 mph /  15.6 km/h 96 % 0.0 in /  0 mm
00:22 0.8 °F /  -17.3 °C 0.2 °F /  -17.7 °C 1029.7 in /  34865.6 hPa SE 1.6 mph /  2.6 km/h 11.3 mph /  18.2 km/h 96 % 0.0 in /  0 mm
00:27 0.8 °F /  -17.3 °C 0.2 °F /  -17.7 °C 1029.7 in /  34865.6 hPa Calm   11.3 mph /  18.2 km/h 96 % 0.0 in /  0 mm
00:32 0.8 °F /  -17.3 °C 0.2 °F /  -17.7 °C 1029.3 in /  34852.1 hPa SSE 1.6 mph /  2.6 km/h 6.4 mph /  10.3 km/h 96 % 0.0 in /  0 mm
00:42 0.8 °F /  -17.3 °C 0.2 °F /  -17.7 °C 1029.3 in /  34852.1 hPa SSE 3.2 mph /  5.1 km/h 6.4 mph /  10.3 km/h 96 % 0.0 in /  0 mm
00:47 0.8 °F /  -17.3 °C 0.2 °F /  -17.7 °C 1029.3 in /  34852.1 hPa Calm   8.0 mph /  12.9 km/h 96 % 0.0 in /  0 mm
00:52 0.8 °F /  -17.3 °C 0.2 °F /  -17.7 °C 1029.3 in /  34852.1 hPa South 6.4 mph /  10.3 km/h 8.0 mph /  12.9 km/h 96 % 0.0 in /  0 mm
00:57 0.8 °F /  -17.3 °C 0.2 °F /  -17.7 °C 1029.3 in /  34852.1 hPa SSW 1.6 mph /  2.6 km/h 8.0 mph /  12.9 km/h 96 % 0.0 in /  0 mm
01:02 0.7 °F /  -17.4 °C 0.1 °F /  -17.7 °C 1029.3 in /  34852.1 hPa SSW 3.2 mph /  5.1 km/h 6.4 mph /  10.3 km/h 96 % 0.0 in /  0 mm
01:07 0.7 °F /  -17.4 °C 0.1 °F /  -17.7 °C 1029.3 in /  34852.1 hPa SSW 3.2 mph /  5.1 km/h 6.4 mph /  10.3 km/h 96 % 0.0 in /  0 mm
01:12 0.6 °F /  -17.4 °C 0.0 °F /  -17.8 °C 1029.3 in /  34852.1 hPa SSE 4.8 mph /  7.7 km/h 6.4 mph /  10.3 km/h 96 % 0.0 in /  0 mm
01:17 0.5 °F /  -17.5 °C -0.1 °F /  -17.8 °C 1029.3 in /  34852.1 hPa SSW 3.2 mph /  5.1 km/h 6.4 mph /  10.3 km/h 96 % 0.0 in /  0 mm
01:22 0.5 °F /  -17.5 °C -0.1 °F /  -17.8 °C 1029.3 in /  34852.1 hPa South 3.2 mph /  5.1 km/h 6.4 mph /  10.3 km/h 96 % 0.0 in /  0 mm
01:27 0.4 °F /  -17.6 °C -0.2 °F /  -17.9 °C 1029.3 in /  34852.1 hPa South 3.2 mph /  5.1 km/h 6.4 mph /  10.3 km/h 96 % 0.0 in /  0 mm
01:37 0.4 °F /  -17.6 °C -0.2 °F /  -17.9 °C 1029.0 in /  34841.9 hPa SSW 4.8 mph /  7.7 km/h 9.7 mph /  15.6 km/h 96 % 0.0 in /  0 mm
01:42 0.4 °F /  -17.6 °C -0.2 °F /  -17.9 °C 1029.0 in /  34841.9 hPa SSE 1.6 mph /  2.6 km/h 8.0 mph /  12.9 km/h 96 % 0.0 in /  0 mm
01:47 0.3 °F /  -17.6 °C -0.3 °F /  -17.9 °C 1029.0 in /  34841.9 hPa SSE 8.0 mph /  12.9 km/h 8.0 mph /  12.9 km/h 96 % 0.0 in /  0 mm
01:52 0.3 °F /  -17.6 °C -0.3 °F /  -17.9 °C 1028.7 in /  34831.8 hPa South 6.4 mph /  10.3 km/h 9.7 mph /  15.6 km/h 96 % 0.0 in /  0 mm
02:02 0.2 °F /  -17.7 °C -0.4 °F /  -18 °C 1028.7 in /  34831.8 hPa South 6.4 mph /  10.3 km/h 9.7 mph /  15.6 km/h 96 % 0.0 in /  0 mm
02:12 0.0 °F /  -17.8 °C -0.6 °F /  -18.1 °C 1028.7 in /  34831.8 hPa SSE 1.6 mph /  2.6 km/h 9.7 mph /  15.6 km/h 96 % 0.0 in /  0 mm
02:17 0.0 °F /  -17.8 °C -0.6 °F /  -18.1 °C 1028.7 in /  34831.8 hPa SE 3.2 mph /  5.1 km/h 9.7 mph /  15.6 km/h 96 % 0.0 in /  0 mm
02:22 -0.1 °F /  -17.8 °C -0.7 °F /  -18.2 °C 1028.7 in /  34831.8 hPa SSE 4.8 mph /  7.7 km/h 9.7 mph /  15.6 km/h 96 % 0.0 in /  0 mm
02:27 -0.1 °F /  -17.8 °C -0.7 °F /  -18.2 °C 1028.7 in /  34831.8 hPa SSE 3.2 mph /  5.1 km/h 8.0 mph /  12.9 km/h 96 % 0.0 in /  0 mm
02:32 -0.1 °F /  -17.8 °C -0.7 °F /  -18.2 °C 1028.7 in /  34831.8 hPa SSE 1.6 mph /  2.6 km/h 6.4 mph /  10.3 km/h 96 % 0.0 in /  0 mm
02:37 -0.1 °F /  -17.8 °C -0.7 °F /  -18.2 °C 1028.7 in /  34831.8 hPa South 1.6 mph /  2.6 km/h 6.4 mph /  10.3 km/h 96 % 0.0 in /  0 mm
02:42 -0.1 °F /  -17.8 °C -0.7 °F /  -18.2 °C 1028.7 in /  34831.8 hPa Calm   6.4 mph /  10.3 km/h 96 % 0.0 in /  0 mm
02:47 -0.1 °F /  -17.8 °C -0.7 °F /  -18.2 °C 1028.7 in /  34831.8 hPa SSE 1.6 mph /  2.6 km/h 6.4 mph /  10.3 km/h 96 % 0.0 in /  0 mm
02:52 -0.2 °F /  -17.9 °C -0.8 °F /  -18.2 °C 1028.7 in /  34831.8 hPa SSE 3.2 mph /  5.1 km/h 6.4 mph /  10.3 km/h 96 % 0.0 in /  0 mm
02:57 -0.3 °F /  -17.9 °C -0.9 °F /  -18.3 °C 1028.7 in /  34831.8 hPa SSW 3.2 mph /  5.1 km/h 8.0 mph /  12.9 km/h 96 % 0.0 in /  0 mm
03:02 -0.3 °F /  -17.9 °C -0.9 °F /  -18.3 °C 1028.7 in /  34831.8 hPa South 1.6 mph /  2.6 km/h 8.0 mph /  12.9 km/h 96 % 0.0 in /  0 mm
03:07 -0.3 °F /  -17.9 °C -0.9 °F /  -18.3 °C 1028.7 in /  34831.8 hPa Calm   8.0 mph /  12.9 km/h 96 % 0.0 in /  0 mm
03:12 -0.3 °F /  -17.9 °C -0.9 °F /  -18.3 °C 1028.7 in /  34831.8 hPa SSE 1.6 mph /  2.6 km/h 6.4 mph /  10.3 km/h 96 % 0.0 in /  0 mm
03:17 -0.4 °F /  -18 °C -1.0 °F /  -18.3 °C 1028.3 in /  34818.2 hPa Calm   4.8 mph /  7.7 km/h 96 % 0.0 in /  0 mm
03:22 -0.4 °F /  -18 °C -1.0 °F /  -18.3 °C 1028.3 in /  34818.2 hPa SSW 4.8 mph /  7.7 km/h 4.8 mph /  7.7 km/h 96 % 0.0 in /  0 mm
03:27 -0.6 °F /  -18.1 °C -1.2 °F /  -18.4 °C 1028.3 in /  34818.2 hPa SW 3.2 mph /  5.1 km/h 8.0 mph /  12.9 km/h 96 % 0.0 in /  0 mm
03:32 -0.7 °F /  -18.2 °C -1.3 °F /  -18.5 °C 1028.3 in /  34818.2 hPa SSW 1.6 mph /  2.6 km/h 8.0 mph /  12.9 km/h 96 % 0.0 in /  0 mm
03:42 -0.9 °F /  -18.3 °C -1.5 °F /  -18.6 °C 1028.0 in /  34808.1 hPa SSE 1.6 mph /  2.6 km/h 8.0 mph /  12.9 km/h 96 % 0.0 in /  0 mm
03:47 -1.0 °F /  -18.3 °C -1.6 °F /  -18.7 °C 1028.0 in /  34808.1 hPa SSE 1.6 mph /  2.6 km/h 8.0 mph /  12.9 km/h 96 % 0.0 in /  0 mm
03:57 -1.1 °F /  -18.4 °C -1.5 °F /  -18.6 °C 1028.0 in /  34808.1 hPa Calm   8.0 mph /  12.9 km/h 97 % 0.0 in /  0 mm
04:02 -1.1 °F /  -18.4 °C -1.5 °F /  -18.6 °C 1028.0 in /  34808.1 hPa Calm   8.0 mph /  12.9 km/h 97 % 0.0 in /  0 mm
04:07 -1.1 °F /  -18.4 °C -1.5 °F /  -18.6 °C 1028.0 in /  34808.1 hPa SSE 3.2 mph /  5.1 km/h 6.4 mph /  10.3 km/h 97 % 0.0 in /  0 mm
04:17 -1.0 °F /  -18.3 °C -1.4 °F /  -18.6 °C 1027.7 in /  34797.9 hPa SSW 3.2 mph /  5.1 km/h 3.2 mph /  5.1 km/h 97 % 0.0 in /  0 mm
04:22 -1.0 °F /  -18.3 °C -1.4 °F /  -18.6 °C 1027.7 in /  34797.9 hPa SSW 3.2 mph /  5.1 km/h 4.8 mph /  7.7 km/h 97 % 0.0 in /  0 mm
04:27 -1.1 °F /  -18.4 °C -1.5 °F /  -18.6 °C 1027.7 in /  34797.9 hPa SE 4.8 mph /  7.7 km/h 4.8 mph /  7.7 km/h 97 % 0.0 in /  0 mm
04:32 -1.2 °F /  -18.4 °C -1.6 °F /  -18.7 °C 1027.7 in /  34797.9 hPa Calm   6.4 mph /  10.3 km/h 97 % 0.0 in /  0 mm
04:37 -1.2 °F /  -18.4 °C -1.6 °F /  -18.7 °C 1027.7 in /  34797.9 hPa SSE 1.6 mph /  2.6 km/h 9.7 mph /  15.6 km/h 97 % 0.0 in /  0 mm
04:47 -1.2 °F /  -18.4 °C -1.6 °F /  -18.7 °C 1027.7 in /  34797.9 hPa Calm   9.7 mph /  15.6 km/h 97 % 0.0 in /  0 mm
04:52 -1.2 °F /  -18.4 °C -1.6 °F /  -18.7 °C 1027.7 in /  34797.9 hPa SW 4.8 mph /  7.7 km/h 6.4 mph /  10.3 km/h 97 % 0.0 in /  0 mm
05:02 -1.2 °F /  -18.4 °C -1.6 °F /  -18.7 °C 1027.7 in /  34797.9 hPa SSW 4.8 mph /  7.7 km/h 8.0 mph /  12.9 km/h 97 % 0.0 in /  0 mm
05:07 -1.2 °F /  -18.4 °C -1.6 °F /  -18.7 °C 1027.7 in /  34797.9 hPa SSW 3.2 mph /  5.1 km/h 8.0 mph /  12.9 km/h 97 % 0.0 in /  0 mm
05:12 -1.2 °F /  -18.4 °C -1.6 °F /  -18.7 °C 1027.7 in /  34797.9 hPa SW 4.8 mph /  7.7 km/h 8.0 mph /  12.9 km/h 97 % 0.0 in /  0 mm
05:17 -1.2 °F /  -18.4 °C -1.6 °F /  -18.7 °C 1027.7 in /  34797.9 hPa South 8.0 mph /  12.9 km/h 14.5 mph /  23.3 km/h 97 % 0.0 in /  0 mm
05:22 -1.2 °F /  -18.4 °C -1.6 °F /  -18.7 °C 1027.7 in /  34797.9 hPa SW 8.0 mph /  12.9 km/h 14.5 mph /  23.3 km/h 97 % 0.0 in /  0 mm
05:32 -1.3 °F /  -18.5 °C -1.7 °F /  -18.7 °C 1027.3 in /  34784.4 hPa SSW 6.4 mph /  10.3 km/h 11.3 mph /  18.2 km/h 97 % 0.0 in /  0 mm
05:37 -1.4 °F /  -18.6 °C -1.8 °F /  -18.8 °C 1027.3 in /  34784.4 hPa SSE 9.7 mph /  15.6 km/h 16.1 mph /  25.9 km/h 97 % 0.0 in /  0 mm
05:42 -1.4 °F /  -18.6 °C -1.8 °F /  -18.8 °C 1027.3 in /  34784.4 hPa SW 9.7 mph /  15.6 km/h 16.1 mph /  25.9 km/h 97 % 0.0 in /  0 mm
05:47 -1.6 °F /  -18.7 °C -2.0 °F /  -18.9 °C 1027.3 in /  34784.4 hPa SSW 4.8 mph /  7.7 km/h 17.7 mph /  28.5 km/h 97 % 0.0 in /  0 mm
05:52 -1.6 °F /  -18.7 °C -2.0 °F /  -18.9 °C 1027.3 in /  34784.4 hPa SSW 6.4 mph /  10.3 km/h 17.7 mph /  28.5 km/h 97 % 0.0 in /  0 mm
05:57 -1.6 °F /  -18.7 °C -2.0 °F /  -18.9 °C 1027.3 in /  34784.4 hPa SSW 3.2 mph /  5.1 km/h 17.7 mph /  28.5 km/h 97 % 0.0 in /  0 mm
06:02 -1.7 °F /  -18.7 °C -2.1 °F /  -18.9 °C 1027.3 in /  34784.4 hPa SW 6.4 mph /  10.3 km/h 16.1 mph /  25.9 km/h 97 % 0.0 in /  0 mm
06:07 -1.8 °F /  -18.8 °C -2.2 °F /  -19 °C 1027.3 in /  34784.4 hPa SW 12.9 mph /  20.8 km/h 19.3 mph /  31.1 km/h 97 % 0.0 in /  0 mm
06:12 -1.9 °F /  -18.8 °C -2.3 °F /  -19.1 °C 1027.3 in /  34784.4 hPa SW 8.0 mph /  12.9 km/h 19.3 mph /  31.1 km/h 97 % 0.0 in /  0 mm
06:17 -1.9 °F /  -18.8 °C -2.3 °F /  -19.1 °C 1027.3 in /  34784.4 hPa SW 14.5 mph /  23.3 km/h 19.3 mph /  31.1 km/h 97 % 0.0 in /  0 mm
06:22 -1.9 °F /  -18.8 °C -2.3 °F /  -19.1 °C 1027.3 in /  34784.4 hPa SW 14.5 mph /  23.3 km/h 19.3 mph /  31.1 km/h 97 % 0.0 in /  0 mm
06:32 -1.9 °F /  -18.8 °C -2.3 °F /  -19.1 °C 1027.3 in /  34784.4 hPa SSW 17.7 mph /  28.5 km/h 19.3 mph /  31.1 km/h 97 % 0.0 in /  0 mm
06:37 -1.9 °F /  -18.8 °C -2.3 °F /  -19.1 °C 1027.3 in /  34784.4 hPa SSW 11.3 mph /  18.2 km/h 17.7 mph /  28.5 km/h 97 % 0.0 in /  0 mm
06:42 -2.0 °F /  -18.9 °C -2.4 °F /  -19.1 °C 1027.0 in /  34774.2 hPa SW 11.3 mph /  18.2 km/h 20.9 mph /  33.6 km/h 97 % 0.0 in /  0 mm
06:47 -2.1 °F /  -18.9 °C -2.5 °F /  -19.2 °C 1027.0 in /  34774.2 hPa SW 6.4 mph /  10.3 km/h 20.9 mph /  33.6 km/h 97 % 0.0 in /  0 mm
06:52 -2.0 °F /  -18.9 °C -2.4 °F /  -19.1 °C 1027.0 in /  34774.2 hPa WSW 9.7 mph /  15.6 km/h 20.9 mph /  33.6 km/h 97 % 0.0 in /  0 mm
07:02 -1.9 °F /  -18.8 °C -2.3 °F /  -19.1 °C 1027.0 in /  34774.2 hPa SSW 6.4 mph /  10.3 km/h 14.5 mph /  23.3 km/h 97 % 0.0 in /  0 mm
07:07 -1.9 °F /  -18.8 °C -2.3 °F /  -19.1 °C 1027.0 in /  34774.2 hPa SW 16.1 mph /  25.9 km/h 16.1 mph /  25.9 km/h 97 % 0.0 in /  0 mm
07:12 -2.1 °F /  -18.9 °C -2.5 °F /  -19.2 °C 1027.0 in /  34774.2 hPa SW 9.7 mph /  15.6 km/h 17.7 mph /  28.5 km/h 97 % 0.0 in /  0 mm
07:17 -2.1 °F /  -18.9 °C -2.5 °F /  -19.2 °C 1027.0 in /  34774.2 hPa SW 12.9 mph /  20.8 km/h 17.7 mph /  28.5 km/h 97 % 0.0 in /  0 mm
07:22 -2.1 °F /  -18.9 °C -2.5 °F /  -19.2 °C 1027.3 in /  34784.4 hPa WSW 4.8 mph /  7.7 km/h 17.7 mph /  28.5 km/h 97 % 0.0 in /  0 mm
07:27 -2.1 °F /  -18.9 °C -2.5 °F /  -19.2 °C 1027.0 in /  34774.2 hPa SSW 9.7 mph /  15.6 km/h 14.5 mph /  23.3 km/h 97 % 0.0 in /  0 mm
07:32 -2.1 °F /  -18.9 °C -2.5 °F /  -19.2 °C 1027.0 in /  34774.2 hPa SW 9.7 mph /  15.6 km/h 14.5 mph /  23.3 km/h 97 % 0.0 in /  0 mm
07:42 -2.1 °F /  -18.9 °C -2.5 °F /  -19.2 °C 1027.0 in /  34774.2 hPa SW 6.4 mph /  10.3 km/h 14.5 mph /  23.3 km/h 97 % 0.0 in /  0 mm
07:47 -2.0 °F /  -18.9 °C -2.4 °F /  -19.1 °C 1027.0 in /  34774.2 hPa SW 4.8 mph /  7.7 km/h 12.9 mph /  20.8 km/h 97 % 0.0 in /  0 mm
07:52 -1.9 °F /  -18.8 °C -2.3 °F /  -19.1 °C 1027.0 in /  34774.2 hPa SSW 8.0 mph /  12.9 km/h 11.3 mph /  18.2 km/h 97 % 0.0 in /  0 mm
07:57 -1.9 °F /  -18.8 °C -2.3 °F /  -19.1 °C 1027.0 in /  34774.2 hPa SSW 3.2 mph /  5.1 km/h 14.5 mph /  23.3 km/h 97 % 0.0 in /  0 mm
08:02 -1.9 °F /  -18.8 °C -2.3 °F /  -19.1 °C 1027.0 in /  34774.2 hPa SSE 6.4 mph /  10.3 km/h 14.5 mph /  23.3 km/h 97 % 0.0 in /  0 mm
08:12 -1.9 °F /  -18.8 °C -2.3 °F /  -19.1 °C 1027.0 in /  34774.2 hPa SSW 6.4 mph /  10.3 km/h 14.5 mph /  23.3 km/h 97 % 0.0 in /  0 mm
08:22 -2.0 °F /  -18.9 °C -2.4 °F /  -19.1 °C 1027.0 in /  34774.2 hPa SW 12.9 mph /  20.8 km/h 16.1 mph /  25.9 km/h 97 % 0.0 in /  0 mm
08:27 -2.0 °F /  -18.9 °C -2.4 °F /  -19.1 °C 1027.0 in /  34774.2 hPa WSW 6.4 mph /  10.3 km/h 17.7 mph /  28.5 km/h 97 % 0.0 in /  0 mm
08:32 -2.1 °F /  -18.9 °C -2.5 °F /  -19.2 °C 1027.0 in /  34774.2 hPa South 8.0 mph /  12.9 km/h 17.7 mph /  28.5 km/h 97 % 0.0 in /  0 mm
08:42 -2.2 °F /  -19 °C -2.6 °F /  -19.2 °C 1027.0 in /  34774.2 hPa South 4.8 mph /  7.7 km/h 16.1 mph /  25.9 km/h 97 % 0.0 in /  0 mm
08:52 -2.2 °F /  -19 °C -2.6 °F /  -19.2 °C 1027.0 in /  34774.2 hPa SSW 1.6 mph /  2.6 km/h 12.9 mph /  20.8 km/h 97 % 0.0 in /  0 mm
08:57 -2.2 °F /  -19 °C -2.6 °F /  -19.2 °C 1027.0 in /  34774.2 hPa SSW 6.4 mph /  10.3 km/h 8.0 mph /  12.9 km/h 97 % 0.0 in /  0 mm
09:02 -2.1 °F /  -18.9 °C -2.5 °F /  -19.2 °C 1027.0 in /  34774.2 hPa SSW 8.0 mph /  12.9 km/h 14.5 mph /  23.3 km/h 97 % 0.0 in /  0 mm
09:07 -2.0 °F /  -18.9 °C -2.4 °F /  -19.1 °C 1027.0 in /  34774.2 hPa SSW 6.4 mph /  10.3 km/h 14.5 mph /  23.3 km/h 97 % 0.0 in /  0 mm
09:12 -1.9 °F /  -18.8 °C -2.3 °F /  -19.1 °C 1026.6 in /  34760.7 hPa SSW 6.4 mph /  10.3 km/h 14.5 mph /  23.3 km/h 97 % 0.0 in /  0 mm
09:17 -2.0 °F /  -18.9 °C -2.4 °F /  -19.1 °C 1027.0 in /  34774.2 hPa SSW 6.4 mph /  10.3 km/h 14.5 mph /  23.3 km/h 97 % 0.0 in /  0 mm
09:22 -2.0 °F /  -18.9 °C -2.4 °F /  -19.1 °C 1026.6 in /  34760.7 hPa SW 8.0 mph /  12.9 km/h 12.9 mph /  20.8 km/h 97 % 0.0 in /  0 mm
09:27 -1.9 °F /  -18.8 °C -2.3 °F /  -19.1 °C 1027.0 in /  34774.2 hPa SSW 9.7 mph /  15.6 km/h 12.9 mph /  20.8 km/h 97 % 0.0 in /  0 mm
09:32 -1.9 °F /  -18.8 °C -2.3 °F /  -19.1 °C 1026.6 in /  34760.7 hPa SW 8.0 mph /  12.9 km/h 12.9 mph /  20.8 km/h 97 % 0.0 in /  0 mm
09:42 -1.9 °F /  -18.8 °C -2.3 °F /  -19.1 °C 1026.6 in /  34760.7 hPa South 8.0 mph /  12.9 km/h 16.1 mph /  25.9 km/h 97 % 0.0 in /  0 mm
09:47 -1.9 °F /  -18.8 °C -2.3 °F /  -19.1 °C 1026.6 in /  34760.7 hPa SSW 6.4 mph /  10.3 km/h 16.1 mph /  25.9 km/h 97 % 0.0 in /  0 mm
09:52 -1.8 °F /  -18.8 °C -2.2 °F /  -19 °C 1026.6 in /  34760.7 hPa SW 6.4 mph /  10.3 km/h 12.9 mph /  20.8 km/h 97 % 0.0 in /  0 mm
09:57 -1.7 °F /  -18.7 °C -2.1 °F /  -18.9 °C 1026.6 in /  34760.7 hPa SSW 9.7 mph /  15.6 km/h 12.9 mph /  20.8 km/h 97 % 0.0 in /  0 mm
10:02 -1.7 °F /  -18.7 °C -2.1 °F /  -18.9 °C 1026.6 in /  34760.7 hPa SSW 9.7 mph /  15.6 km/h 14.5 mph /  23.3 km/h 97 % 0.0 in /  0 mm
10:12 -1.6 °F /  -18.7 °C -2.0 °F /  -18.9 °C 1026.6 in /  34760.7 hPa SW 8.0 mph /  12.9 km/h 14.5 mph /  23.3 km/h 97 % 0.0 in /  0 mm
10:17 -1.7 °F /  -18.7 °C -2.1 °F /  -18.9 °C 1026.6 in /  34760.7 hPa SSW 3.2 mph /  5.1 km/h 12.9 mph /  20.8 km/h 97 % 0.0 in /  0 mm
10:22 -1.5 °F /  -18.6 °C -1.9 °F /  -18.8 °C 1026.6 in /  34760.7 hPa SW 9.7 mph /  15.6 km/h 14.5 mph /  23.3 km/h 97 % 0.0 in /  0 mm
10:27 -1.5 °F /  -18.6 °C -1.9 °F /  -18.8 °C 1026.6 in /  34760.7 hPa South 9.7 mph /  15.6 km/h 14.5 mph /  23.3 km/h 97 % 0.0 in /  0 mm
10:32 -1.5 °F /  -18.6 °C -1.9 °F /  -18.8 °C 1026.6 in /  34760.7 hPa SSW 8.0 mph /  12.9 km/h 14.5 mph /  23.3 km/h 97 % 0.0 in /  0 mm
10:37 -1.4 °F /  -18.6 °C -1.8 °F /  -18.8 °C 1026.6 in /  34760.7 hPa SSW 4.8 mph /  7.7 km/h 16.1 mph /  25.9 km/h 97 % 0.0 in /  0 mm
10:42 -1.4 °F /  -18.6 °C -1.8 °F /  -18.8 °C 1026.6 in /  34760.7 hPa SSE 1.6 mph /  2.6 km/h 16.1 mph /  25.9 km/h 97 % 0.0 in /  0 mm
10:47 -1.4 °F /  -18.6 °C -1.8 °F /  -18.8 °C 1026.6 in /  34760.7 hPa SSW 12.9 mph /  20.8 km/h 16.1 mph /  25.9 km/h 97 % 0.0 in /  0 mm
10:52 -1.3 °F /  -18.5 °C -1.7 °F /  -18.7 °C 1026.3 in /  34750.5 hPa SSW 6.4 mph /  10.3 km/h 14.5 mph /  23.3 km/h 97 % 0.0 in /  0 mm
10:57 -1.2 °F /  -18.4 °C -1.6 °F /  -18.7 °C 1026.3 in /  34750.5 hPa SSW 8.0 mph /  12.9 km/h 14.5 mph /  23.3 km/h 97 % 0.0 in /  0 mm
11:02 -1.1 °F /  -18.4 °C -1.5 °F /  -18.6 °C 1026.3 in /  34750.5 hPa SW 12.9 mph /  20.8 km/h 14.5 mph /  23.3 km/h 97 % 0.0 in /  0 mm
11:12 -0.7 °F /  -18.2 °C -1.1 °F /  -18.4 °C 1026.0 in /  34740.4 hPa SSW 6.4 mph /  10.3 km/h 14.5 mph /  23.3 km/h 97 % 0.0 in /  0 mm
11:17 -0.5 °F /  -18.1 °C -0.9 °F /  -18.3 °C 1026.0 in /  34740.4 hPa South 3.2 mph /  5.1 km/h 14.5 mph /  23.3 km/h 97 % 0.0 in /  0 mm
11:22 -0.2 °F /  -17.9 °C -0.5 °F /  -18.1 °C 1026.0 in /  34740.4 hPa South 1.6 mph /  2.6 km/h 14.5 mph /  23.3 km/h 98 % 0.0 in /  0 mm
11:32 0.1 °F /  -17.7 °C -0.2 °F /  -17.9 °C 1026.0 in /  34740.4 hPa South 1.6 mph /  2.6 km/h 14.5 mph /  23.3 km/h 98 % 0.0 in /  0 mm
11:42 0.4 °F /  -17.6 °C 0.1 °F /  -17.7 °C 1025.6 in /  34726.8 hPa SSW 9.7 mph /  15.6 km/h 14.5 mph /  23.3 km/h 98 % 0.0 in /  0 mm
11:47 0.5 °F /  -17.5 °C 0.2 °F /  -17.7 °C 1025.3 in /  34716.7 hPa South 4.8 mph /  7.7 km/h 14.5 mph /  23.3 km/h 98 % 0.0 in /  0 mm
11:52 0.6 °F /  -17.4 °C 0.3 °F /  -17.6 °C 1025.3 in /  34716.7 hPa SSW 4.8 mph /  7.7 km/h 14.5 mph /  23.3 km/h 98 % 0.0 in /  0 mm
12:02 0.9 °F /  -17.3 °C 0.6 °F /  -17.4 °C 1024.9 in /  34703.1 hPa SSW 3.2 mph /  5.1 km/h 14.5 mph /  23.3 km/h 98 % 0.0 in /  0 mm
12:07 1.2 °F /  -17.1 °C 0.9 °F /  -17.3 °C 1024.9 in /  34703.1 hPa SSW 9.7 mph /  15.6 km/h 16.1 mph /  25.9 km/h 98 % 0.0 in /  0 mm
12:12 1.4 °F /  -17 °C 1.1 °F /  -17.2 °C 1024.9 in /  34703.1 hPa SW 12.9 mph /  20.8 km/h 16.1 mph /  25.9 km/h 98 % 0.0 in /  0 mm
12:17 1.7 °F /  -16.8 °C 1.4 °F /  -17 °C 1024.9 in /  34703.1 hPa SSW 8.0 mph /  12.9 km/h 16.1 mph /  25.9 km/h 98 % 0.0 in /  0 mm
12:22 1.9 °F /  -16.7 °C 1.6 °F /  -16.9 °C 1024.9 in /  34703.1 hPa SW 12.9 mph /  20.8 km/h 17.7 mph /  28.5 km/h 98 % 0.0 in /  0 mm
12:27 2.1 °F /  -16.6 °C 1.8 °F /  -16.8 °C 1024.9 in /  34703.1 hPa SW 9.7 mph /  15.6 km/h 20.9 mph /  33.6 km/h 98 % 0.0 in /  0 mm
12:37 2.4 °F /  -16.4 °C 2.1 °F /  -16.6 °C 1024.6 in /  34693 hPa SW 17.7 mph /  28.5 km/h 20.9 mph /  33.6 km/h 98 % 0.0 in /  0 mm
12:42 2.6 °F /  -16.3 °C 2.3 °F /  -16.5 °C 1024.6 in /  34693 hPa SSW 19.3 mph /  31.1 km/h 24.1 mph /  38.8 km/h 98 % 0.0 in /  0 mm
12:47 2.8 °F /  -16.2 °C 2.5 °F /  -16.4 °C 1024.3 in /  34682.8 hPa SSW 16.1 mph /  25.9 km/h 25.7 mph /  41.4 km/h 98 % 0.0 in /  0 mm
12:52 2.9 °F /  -16.2 °C 2.6 °F /  -16.3 °C 1024.3 in /  34682.8 hPa SSW 12.9 mph /  20.8 km/h 25.7 mph /  41.4 km/h 98 % 0.0 in /  0 mm
12:57 3.1 °F /  -16.1 °C 2.8 °F /  -16.2 °C 1024.3 in /  34682.8 hPa SSW 17.7 mph /  28.5 km/h 22.5 mph /  36.2 km/h 98 % 0.0 in /  0 mm
13:02 3.3 °F /  -15.9 °C 3.0 °F /  -16.1 °C 1024.3 in /  34682.8 hPa WSW 16.1 mph /  25.9 km/h 22.5 mph /  36.2 km/h 98 % 0.0 in /  0 mm
13:07 3.6 °F /  -15.8 °C 3.3 °F /  -15.9 °C 1023.9 in /  34669.3 hPa SSW 9.7 mph /  15.6 km/h 20.9 mph /  33.6 km/h 98 % 0.0 in /  0 mm
13:12 3.9 °F /  -15.6 °C 3.5 °F /  -15.8 °C 1023.9 in /  34669.3 hPa SSW 9.7 mph /  15.6 km/h 24.1 mph /  38.8 km/h 97 % 0.0 in /  0 mm
13:17 4.2 °F /  -15.4 °C 3.8 °F /  -15.7 °C 1023.6 in /  34659.1 hPa SW 16.1 mph /  25.9 km/h 24.1 mph /  38.8 km/h 97 % 0.0 in /  0 mm
13:22 4.3 °F /  -15.4 °C 3.6 °F /  -15.8 °C 1023.6 in /  34659.1 hPa SSW 14.5 mph /  23.3 km/h 24.1 mph /  38.8 km/h 95 % 0.0 in /  0 mm
13:27 4.4 °F /  -15.3 °C 3.5 °F /  -15.8 °C 1023.6 in /  34659.1 hPa SSW 14.5 mph /  23.3 km/h 22.5 mph /  36.2 km/h 94 % 0.0 in /  0 mm
13:32 4.5 °F /  -15.3 °C 3.5 °F /  -15.8 °C 1023.2 in /  34645.6 hPa SSW 14.5 mph /  23.3 km/h 29.0 mph /  46.7 km/h 93 % 0.0 in /  0 mm
13:37 4.6 °F /  -15.2 °C 3.4 °F /  -15.9 °C 1023.2 in /  34645.6 hPa SW 14.5 mph /  23.3 km/h 29.0 mph /  46.7 km/h 92 % 0.0 in /  0 mm
13:42 4.7 °F /  -15.2 °C 3.5 °F /  -15.8 °C 1023.2 in /  34645.6 hPa SSW 9.7 mph /  15.6 km/h 25.7 mph /  41.4 km/h 92 % 0.0 in /  0 mm
13:52 4.9 °F /  -15.1 °C 3.7 °F /  -15.7 °C 1022.9 in /  34635.4 hPa South 4.8 mph /  7.7 km/h 24.1 mph /  38.8 km/h 92 % 0.0 in /  0 mm
13:57 5.1 °F /  -14.9 °C 3.9 °F /  -15.6 °C 1022.9 in /  34635.4 hPa SSW 9.7 mph /  15.6 km/h 19.3 mph /  31.1 km/h 92 % 0.0 in /  0 mm
14:07 5.3 °F /  -14.8 °C 4.0 °F /  -15.6 °C 1022.9 in /  34635.4 hPa South 8.0 mph /  12.9 km/h 20.9 mph /  33.6 km/h 91 % 0.0 in /  0 mm
14:17 5.5 °F /  -14.7 °C 4.0 °F /  -15.6 °C 1022.6 in /  34625.2 hPa SSW 12.9 mph /  20.8 km/h 22.5 mph /  36.2 km/h 90 % 0.0 in /  0 mm
14:22 5.5 °F /  -14.7 °C 4.0 °F /  -15.6 °C 1022.6 in /  34625.2 hPa SSW 14.5 mph /  23.3 km/h 22.5 mph /  36.2 km/h 90 % 0.0 in /  0 mm
14:32 5.7 °F /  -14.6 °C 4.0 °F /  -15.6 °C 1022.2 in /  34611.7 hPa SW 19.3 mph /  31.1 km/h 22.5 mph /  36.2 km/h 89 % 0.0 in /  0 mm
14:37 5.8 °F /  -14.6 °C 4.1 °F /  -15.5 °C 1022.2 in /  34611.7 hPa SW 22.5 mph /  36.2 km/h 22.5 mph /  36.2 km/h 89 % 0.0 in /  0 mm
14:42 5.8 °F /  -14.6 °C 4.1 °F /  -15.5 °C 1021.9 in /  34601.5 hPa SSW 11.3 mph /  18.2 km/h 27.4 mph /  44.1 km/h 89 % 0.0 in /  0 mm
14:47 5.9 °F /  -14.5 °C 4.2 °F /  -15.4 °C 1021.9 in /  34601.5 hPa SSW 12.9 mph /  20.8 km/h 27.4 mph /  44.1 km/h 89 % 0.0 in /  0 mm
14:57 6.1 °F /  -14.4 °C 4.4 °F /  -15.3 °C 1021.9 in /  34601.5 hPa South 9.7 mph /  15.6 km/h 25.7 mph /  41.4 km/h 89 % 0.0 in /  0 mm
15:02 6.2 °F /  -14.3 °C 4.5 °F /  -15.3 °C 1021.6 in /  34591.4 hPa South 12.9 mph /  20.8 km/h 22.5 mph /  36.2 km/h 89 % 0.0 in /  0 mm
15:12 6.3 °F /  -14.3 °C 4.5 °F /  -15.3 °C 1021.6 in /  34591.4 hPa South 12.9 mph /  20.8 km/h 17.7 mph /  28.5 km/h 88 % 0.0 in /  0 mm
15:22 6.4 °F /  -14.2 °C 4.6 °F /  -15.2 °C 1021.2 in /  34577.8 hPa South 8.0 mph /  12.9 km/h 20.9 mph /  33.6 km/h 88 % 0.0 in /  0 mm
15:27 6.4 °F /  -14.2 °C 4.6 °F /  -15.2 °C 1021.2 in /  34577.8 hPa SSW 12.9 mph /  20.8 km/h 20.9 mph /  33.6 km/h 88 % 0.0 in /  0 mm
15:32 6.4 °F /  -14.2 °C 4.6 °F /  -15.2 °C 1021.2 in /  34577.8 hPa SSW 11.3 mph /  18.2 km/h 20.9 mph /  33.6 km/h 88 % 0.0 in /  0 mm
15:52 6.6 °F /  -14.1 °C 4.6 °F /  -15.2 °C 1020.9 in /  34567.7 hPa SSW 8.0 mph /  12.9 km/h 22.5 mph /  36.2 km/h 87 % 0.0 in /  0 mm
15:57 6.6 °F /  -14.1 °C 4.6 °F /  -15.2 °C 1020.9 in /  34567.7 hPa SSW 17.7 mph /  28.5 km/h 22.5 mph /  36.2 km/h 87 % 0.0 in /  0 mm
16:02 6.7 °F /  -14.1 °C 4.7 °F /  -15.2 °C 1020.5 in /  34554.1 hPa SW 8.0 mph /  12.9 km/h 22.5 mph /  36.2 km/h 87 % 0.0 in /  0 mm
16:12 6.7 °F /  -14.1 °C 4.7 °F /  -15.2 °C 1020.5 in /  34554.1 hPa SW 8.0 mph /  12.9 km/h 17.7 mph /  28.5 km/h 87 % 0.0 in /  0 mm
16:37 6.7 °F /  -14.1 °C 4.7 °F /  -15.2 °C 1020.2 in /  34544 hPa SSW 8.0 mph /  12.9 km/h 14.5 mph /  23.3 km/h 87 % 0.0 in /  0 mm
16:42 6.7 °F /  -14.1 °C 4.7 °F /  -15.2 °C 1020.2 in /  34544 hPa SSW 9.7 mph /  15.6 km/h 14.5 mph /  23.3 km/h 87 % 0.0 in /  0 mm
16:47 6.7 °F /  -14.1 °C 4.7 °F /  -15.2 °C 1020.2 in /  34544 hPa SSW 12.9 mph /  20.8 km/h 14.5 mph /  23.3 km/h 87 % 0.0 in /  0 mm
16:57 6.8 °F /  -14 °C 4.6 °F /  -15.2 °C 1019.9 in /  34533.8 hPa SSW 12.9 mph /  20.8 km/h 14.5 mph /  23.3 km/h 86 % 0.0 in /  0 mm
17:07 6.8 °F /  -14 °C 4.6 °F /  -15.2 °C 1019.9 in /  34533.8 hPa SSW 9.7 mph /  15.6 km/h 16.1 mph /  25.9 km/h 86 % 0.0 in /  0 mm
17:12 6.8 °F /  -14 °C 4.6 °F /  -15.2 °C 1019.9 in /  34533.8 hPa SSW 12.9 mph /  20.8 km/h 16.1 mph /  25.9 km/h 86 % 0.0 in /  0 mm
17:22 6.8 °F /  -14 °C 4.6 °F /  -15.2 °C 1019.9 in /  34533.8 hPa SSW 8.0 mph /  12.9 km/h 17.7 mph /  28.5 km/h 86 % 0.0 in /  0 mm
17:27 6.8 °F /  -14 °C 4.8 °F /  -15.1 °C 1019.5 in /  34520.3 hPa SW 12.9 mph /  20.8 km/h 17.7 mph /  28.5 km/h 87 % 0.0 in /  0 mm
17:32 6.8 °F /  -14 °C 4.6 °F /  -15.2 °C 1019.5 in /  34520.3 hPa SSW 9.7 mph /  15.6 km/h 17.7 mph /  28.5 km/h 86 % 0.0 in /  0 mm
17:47 6.8 °F /  -14 °C 4.6 °F /  -15.2 °C 1019.5 in /  34520.3 hPa SW 14.5 mph /  23.3 km/h 19.3 mph /  31.1 km/h 86 % 0.0 in /  0 mm
17:52 6.8 °F /  -14 °C 4.8 °F /  -15.1 °C 1019.5 in /  34520.3 hPa SSW 11.3 mph /  18.2 km/h 19.3 mph /  31.1 km/h 87 % 0.0 in /  0 mm
17:57 6.7 °F /  -14.1 °C 4.7 °F /  -15.2 °C 1019.5 in /  34520.3 hPa SSW 11.3 mph /  18.2 km/h 19.3 mph /  31.1 km/h 87 % 0.0 in /  0 mm
18:02 6.6 °F /  -14.1 °C 4.8 °F /  -15.1 °C 1019.2 in /  34510.1 hPa SW 9.7 mph /  15.6 km/h 17.7 mph /  28.5 km/h 88 % 0.3 in /  7.62 mm
18:12 6.4 °F /  -14.2 °C 4.7 °F /  -15.2 °C 1019.2 in /  34510.1 hPa SW 9.7 mph /  15.6 km/h 19.3 mph /  31.1 km/h 89 % 0.5 in /  12.7 mm
18:17 6.4 °F /  -14.2 °C 4.9 °F /  -15.1 °C 1019.2 in /  34510.1 hPa SW 8.0 mph /  12.9 km/h 19.3 mph /  31.1 km/h 90 % 0.5 in /  12.7 mm
18:22 6.4 °F /  -14.2 °C 4.9 °F /  -15.1 °C 1019.2 in /  34510.1 hPa SSW 11.3 mph /  18.2 km/h 19.3 mph /  31.1 km/h 90 % 0.5 in /  12.7 mm
18:32 6.6 °F /  -14.1 °C 4.9 °F /  -15.1 °C 1018.8 in /  34496.6 hPa SSW 11.3 mph /  18.2 km/h 19.3 mph /  31.1 km/h 89 % 0.8 in /  20.32 mm
18:42 6.4 °F /  -14.2 °C 4.9 °F /  -15.1 °C 1018.8 in /  34496.6 hPa SSW 6.4 mph /  10.3 km/h 16.1 mph /  25.9 km/h 90 % 1.0 in /  25.4 mm
18:57 6.4 °F /  -14.2 °C 4.9 °F /  -15.1 °C 1018.8 in /  34496.6 hPa SW 16.1 mph /  25.9 km/h 19.3 mph /  31.1 km/h 90 % 1.5 in /  38.1 mm
19:02 6.4 °F /  -14.2 °C 4.9 °F /  -15.1 °C 1018.5 in /  34486.4 hPa SSW 14.5 mph /  23.3 km/h 20.9 mph /  33.6 km/h 90 % 1.3 in /  33.02 mm
19:12 6.5 °F /  -14.2 °C 4.8 °F /  -15.1 °C 1018.5 in /  34486.4 hPa SSW 14.5 mph /  23.3 km/h 24.1 mph /  38.8 km/h 89 % 1.5 in /  38.1 mm
19:17 6.5 °F /  -14.2 °C 4.8 °F /  -15.1 °C 1018.2 in /  34476.3 hPa SW 17.7 mph /  28.5 km/h 24.1 mph /  38.8 km/h 89 % 1.5 in /  38.1 mm
19:22 6.5 °F /  -14.2 °C 4.8 °F /  -15.1 °C 1018.5 in /  34486.4 hPa SSW 20.9 mph /  33.6 km/h 27.4 mph /  44.1 km/h 89 % 1.5 in /  38.1 mm
19:27 6.6 °F /  -14.1 °C 4.9 °F /  -15.1 °C 1018.2 in /  34476.3 hPa SSW 12.9 mph /  20.8 km/h 29.0 mph /  46.7 km/h 89 % 1.8 in /  45.72 mm
19:52 6.5 °F /  -14.2 °C 5.0 °F /  -15 °C 1018.2 in /  34476.3 hPa SW 27.4 mph /  44.1 km/h 35.4 mph /  57 km/h 90 % 2.0 in /  50.8 mm
19:57 6.4 °F /  -14.2 °C 5.0 °F /  -15 °C 1018.2 in /  34476.3 hPa SW 19.3 mph /  31.1 km/h 37.0 mph /  59.5 km/h 91 % 2.0 in /  50.8 mm
20:02 6.4 °F /  -14.2 °C 5.2 °F /  -14.9 °C 1018.2 in /  34476.3 hPa SW 19.3 mph /  31.1 km/h 37.0 mph /  59.5 km/h 92 % 2.0 in /  50.8 mm
20:07 6.3 °F /  -14.3 °C 5.3 °F /  -14.8 °C 1018.2 in /  34476.3 hPa WSW 24.1 mph /  38.8 km/h 37.0 mph /  59.5 km/h 93 % 1.8 in /  45.72 mm
20:12 6.3 °F /  -14.3 °C 5.3 °F /  -14.8 °C 1017.8 in /  34462.7 hPa SW 22.5 mph /  36.2 km/h 33.8 mph /  54.4 km/h 93 % 2.3 in /  58.42 mm
20:17 6.3 °F /  -14.3 °C 5.3 °F /  -14.8 °C 1017.8 in /  34462.7 hPa SW 25.7 mph /  41.4 km/h 37.0 mph /  59.5 km/h 93 % 2.3 in /  58.42 mm
20:22 6.2 °F /  -14.3 °C 5.2 °F /  -14.9 °C 1017.8 in /  34462.7 hPa SSW 19.3 mph /  31.1 km/h 37.0 mph /  59.5 km/h 93 % 2.3 in /  58.42 mm
20:27 6.2 °F /  -14.3 °C 5.3 °F /  -14.8 °C 1017.8 in /  34462.7 hPa SW 17.7 mph /  28.5 km/h 32.2 mph /  51.8 km/h 94 % 2.3 in /  58.42 mm
20:32 6.1 °F /  -14.4 °C 5.2 °F /  -14.9 °C 1017.8 in /  34462.7 hPa SW 17.7 mph /  28.5 km/h 32.2 mph /  51.8 km/h 94 % 2.3 in /  58.42 mm
20:42 6.1 °F /  -14.4 °C 5.4 °F /  -14.8 °C 1017.8 in /  34462.7 hPa SSW 24.1 mph /  38.8 km/h 32.2 mph /  51.8 km/h 95 % 2.3 in /  58.42 mm
21:02 6.1 °F /  -14.4 °C 5.5 °F /  -14.7 °C 1017.8 in /  34462.7 hPa SW 19.3 mph /  31.1 km/h 35.4 mph /  57 km/h 96 % 2.0 in /  50.8 mm
21:17 6.2 °F /  -14.3 °C 5.6 °F /  -14.7 °C 1017.5 in /  34452.6 hPa WSW 24.1 mph /  38.8 km/h 33.8 mph /  54.4 km/h 96 % 1.8 in /  45.72 mm
21:22 6.2 °F /  -14.3 °C 5.6 °F /  -14.7 °C 1017.5 in /  34452.6 hPa SW 17.7 mph /  28.5 km/h 33.8 mph /  54.4 km/h 96 % 1.5 in /  38.1 mm
21:37 6.2 °F /  -14.3 °C 5.6 °F /  -14.7 °C 1017.5 in /  34452.6 hPa SW 22.5 mph /  36.2 km/h 32.2 mph /  51.8 km/h 96 % 1.5 in /  38.1 mm
21:47 6.2 °F /  -14.3 °C 5.6 °F /  -14.7 °C 1017.5 in /  34452.6 hPa SW 17.7 mph /  28.5 km/h 32.2 mph /  51.8 km/h 96 % 1.8 in /  45.72 mm
21:52 6.2 °F /  -14.3 °C 5.6 °F /  -14.7 °C 1017.2 in /  34442.4 hPa SW 19.3 mph /  31.1 km/h 29.0 mph /  46.7 km/h 96 % 1.5 in /  38.1 mm
22:07 6.3 °F /  -14.3 °C 5.9 °F /  -14.5 °C 1017.2 in /  34442.4 hPa SW 17.7 mph /  28.5 km/h 30.6 mph /  49.2 km/h 97 % 1.3 in /  33.02 mm
22:12 6.3 °F /  -14.3 °C 5.9 °F /  -14.5 °C 1017.2 in /  34442.4 hPa WSW 27.4 mph /  44.1 km/h 32.2 mph /  51.8 km/h 97 % 1.3 in /  33.02 mm
22:17 6.3 °F /  -14.3 °C 5.9 °F /  -14.5 °C 1016.8 in /  34428.8 hPa WSW 17.7 mph /  28.5 km/h 32.2 mph /  51.8 km/h 97 % 1.0 in /  25.4 mm
22:22 6.3 °F /  -14.3 °C 5.9 °F /  -14.5 °C 1016.8 in /  34428.8 hPa SW 12.9 mph /  20.8 km/h 32.2 mph /  51.8 km/h 97 % 0.8 in /  20.32 mm
22:37 6.3 °F /  -14.3 °C 5.9 °F /  -14.5 °C 1016.5 in /  34418.7 hPa SW 19.3 mph /  31.1 km/h 30.6 mph /  49.2 km/h 97 % 0.5 in /  12.7 mm
22:42 6.3 °F /  -14.3 °C 5.9 °F /  -14.5 °C 1016.5 in /  34418.7 hPa WSW 20.9 mph /  33.6 km/h 30.6 mph /  49.2 km/h 97 % 0.5 in /  12.7 mm
22:47 6.3 °F /  -14.3 °C 5.9 °F /  -14.5 °C 1016.1 in /  34405.1 hPa WSW 19.3 mph /  31.1 km/h 30.6 mph /  49.2 km/h 97 % 0.3 in /  7.62 mm
22:57 6.4 °F /  -14.2 °C 6.0 °F /  -14.4 °C 1016.8 in /  34428.8 hPa SW 16.1 mph /  25.9 km/h 30.6 mph /  49.2 km/h 97 % 0.3 in /  7.62 mm
23:02 6.5 °F /  -14.2 °C 6.1 °F /  -14.4 °C 1016.5 in /  34418.7 hPa SW 20.9 mph /  33.6 km/h 30.6 mph /  49.2 km/h 97 % 0.5 in /  12.7 mm
23:07 6.5 °F /  -14.2 °C 6.1 °F /  -14.4 °C 1016.5 in /  34418.7 hPa SW 22.5 mph /  36.2 km/h 30.6 mph /  49.2 km/h 97 % 0.5 in /  12.7 mm
23:12 6.5 °F /  -14.2 °C 6.1 °F /  -14.4 °C 1016.8 in /  34428.8 hPa SW 14.5 mph /  23.3 km/h 27.4 mph /  44.1 km/h 97 % 0.5 in /  12.7 mm
23:17 6.5 °F /  -14.2 °C 6.1 °F /  -14.4 °C 1016.5 in /  34418.7 hPa SW 14.5 mph /  23.3 km/h 29.0 mph /  46.7 km/h 97 % 0.5 in /  12.7 mm
23:22 6.6 °F /  -14.1 °C 6.2 °F /  -14.3 °C 1016.5 in /  34418.7 hPa WSW 19.3 mph /  31.1 km/h 29.0 mph /  46.7 km/h 97 % 0.5 in /  12.7 mm
23:32 6.6 °F /  -14.1 °C 6.2 °F /  -14.3 °C 1016.8 in /  34428.8 hPa SW 6.4 mph /  10.3 km/h 24.1 mph /  38.8 km/h 97 % 0.5 in /  12.7 mm
23:37 6.7 °F /  -14.1 °C 6.3 °F /  -14.3 °C 1016.8 in /  34428.8 hPa WSW 14.5 mph /  23.3 km/h 22.5 mph /  36.2 km/h 97 % 0.3 in /  7.62 mm
23:42 6.7 °F /  -14.1 °C 6.3 °F /  -14.3 °C 1017.2 in /  34442.4 hPa West 6.4 mph /  10.3 km/h 20.9 mph /  33.6 km/h 97 % 0.3 in /  7.62 mm
23:47 6.8 °F /  -14 °C 6.4 °F /  -14.2 °C 1017.2 in /  34442.4 hPa SW 4.8 mph /  7.7 km/h 19.3 mph /  31.1 km/h 97 % 0.5 in /  12.7 mm
23:57 6.9 °F /  -13.9 °C 6.5 °F /  -14.2 °C 1017.2 in /  34442.4 hPa WSW 9.7 mph /  15.6 km/h 16.1 mph /  25.9 km/h 97 % 0.5 in /  12.7 mm
Meteo18
Compliments of Weather Underground - 4 mb

Script developed by  Jim McMurry - jmcmurry@mwt.net Adapted for the template by  Wim van der Kuil - Leuven-Template.eu

You find our weather info also at:

European Weather Network

Weather Underground

Equipment we use:

Weather-station
Davis Vue

Weather-program
Meteobridge

Weather-server
Raspberry PI 2 B+

Provider
1 and 1

Davis Vue

Meteobridge

Raspberry PI 2 B+

1 and 1